Time;durP1;ratioP1;P1;durP2;ratioP2;P2;SDS_P1;SDS_P2;PMS_P1;PMS_P2;Temp;Humidity;BMP_temperature;BMP_pressure;BME280_temperature;BME280_humidity;BME280_pressure;Samples;Min_cycle;Max_cycle;Signal;HPM_P1;HPM_P2
2023/05/26 00:01:47;;;;;;;19.15;14.68;;;;;;;11.71;100.00;97081.09;5028544;28;20068;-70
2023/05/26 00:04:16;;;;;;;23.13;15.35;;;;;;;11.77;100.00;97087.84;5027246;28;20045;-72
2023/05/26 00:06:43;;;;;;;;;;;;;;;12.00;100.00;97083.19;5031027;28;20053;-72
2023/05/26 00:09:09;;;;;;;22.38;14.02;;;;;;;12.16;100.00;97080.31;5021815;28;19966;-70
2023/05/26 00:11:34;;;;;;;21.30;14.18;;;;;;;12.22;100.00;97083.53;5025949;28;20049;-72
2023/05/26 00:14:00;;;;;;;18.38;12.73;;;;;;;12.26;100.00;97086.34;5022092;28;20132;-71
2023/05/26 00:16:25;;;;;;;18.67;14.70;;;;;;;12.41;100.00;97085.41;5019561;28;20037;-71
2023/05/26 00:18:50;;;;;;;19.58;12.77;;;;;;;12.41;100.00;97082.69;5024280;28;20042;-71
2023/05/26 00:21:16;;;;;;;19.75;12.55;;;;;;;12.36;100.00;97080.25;5019843;28;20108;-71
2023/05/26 00:23:41;;;;;;;18.00;12.55;;;;;;;12.23;100.00;97083.19;5024767;28;20402;-70
2023/05/26 00:26:07;;;;;;;21.90;12.73;;;;;;;12.18;100.00;97080.75;5019163;28;20119;-68
2023/05/26 00:28:32;;;;;;;21.83;12.60;;;;;;;12.13;100.00;97085.75;5025203;28;20056;-71
2023/05/26 00:30:58;;;;;;;14.30;10.57;;;;;;;11.91;100.00;97090.88;5007561;28;20041;-70
2023/05/26 00:33:24;;;;;;;15.88;11.25;;;;;;;11.90;100.00;97085.72;5021687;28;20663;-71
2023/05/26 00:35:49;;;;;;;17.58;11.23;;;;;;;11.95;100.00;97079.97;5027007;28;20056;-68
2023/05/26 00:38:15;;;;;;;21.77;11.85;;;;;;;11.78;100.00;97081.22;5022205;28;20053;-70
2023/05/26 00:40:40;;;;;;;18.48;12.73;;;;;;;11.61;100.00;97077.81;5025551;28;20136;-71
2023/05/26 00:43:05;;;;;;;15.48;11.25;;;;;;;11.63;100.00;97088.38;5019988;28;20470;-70
2023/05/26 00:45:32;;;;;;;22.23;12.30;;;;;;;11.62;100.00;97076.63;5023200;28;20033;-72
2023/05/26 00:47:58;;;;;;;19.50;11.85;;;;;;;11.60;100.00;97084.44;5030398;28;20046;-71
2023/05/26 00:50:27;;;;;;;22.25;12.70;;;;;;;11.47;100.00;97083.03;5024245;28;20044;-73
2023/05/26 00:52:53;;;;;;;;;;;;;;;11.58;100.00;97080.47;5022706;28;20045;-71
2023/05/26 00:55:20;;;;;;;17.08;12.15;;;;;;;11.69;100.00;97075.19;5017927;28;20446;-71
2023/05/26 00:57:45;;;;;;;18.40;12.40;;;;;;;11.62;100.00;97075.84;5023790;28;20441;-71
2023/05/26 01:00:12;;;;;;;17.55;11.93;;;;;;;11.60;100.00;97081.69;5021590;28;20042;-71
2023/05/26 01:02:39;;;;;;;21.95;12.05;;;;;;;11.65;100.00;97081.38;5037605;28;20076;-71
2023/05/26 01:05:06;;;;;;;21.02;12.13;;;;;;;11.67;100.00;97083.78;5034882;28;20037;-67
2023/05/26 01:07:32;;;;;;;19.90;12.00;;;;;;;11.64;100.00;97071.56;5035308;28;20046;-69
2023/05/26 01:09:58;;;;;;;21.13;12.75;;;;;;;11.44;100.00;97072.78;5035394;28;20041;-70
2023/05/26 01:12:32;;;;;;;21.30;13.13;;;;;;;11.41;100.00;97078.97;5028105;28;20033;-72
2023/05/26 01:15:23;;;;;;;20.88;13.27;;;;;;;11.43;100.00;97071.97;5028209;28;20034;-71
2023/05/26 01:18:05;;;;;;;24.17;13.30;;;;;;;11.39;100.00;97070.31;5023117;28;20120;-69
2023/05/26 01:20:45;;;;;;;25.23;13.18;;;;;;;11.50;100.00;97070.50;5022513;28;20037;-70
2023/05/26 01:23:48;;;;;;;19.55;12.48;;;;;;;11.63;100.00;97061.75;5017976;28;20040;-72
2023/05/26 01:26:37;;;;;;;22.30;10.50;;;;;;;11.83;100.00;97067.19;5021200;28;20038;-73
2023/05/26 01:29:15;;;;;;;17.77;11.35;;;;;;;11.94;100.00;97070.94;5023915;28;20044;-67
2023/05/26 01:31:40;;;;;;;21.20;9.95;;;;;;;12.45;100.00;97078.03;5026432;28;20037;-69
2023/05/26 01:34:06;;;;;;;16.63;9.48;;;;;;;12.51;100.00;97084.78;5015958;28;20052;-70
2023/05/26 01:36:32;;;;;;;16.00;10.00;;;;;;;12.75;100.00;97088.28;5023093;28;20061;-68
2023/05/26 01:38:58;;;;;;;16.25;8.85;;;;;;;12.87;100.00;97085.28;5021555;28;20049;-70
2023/05/26 01:41:26;;;;;;;17.23;8.85;;;;;;;12.95;100.00;97086.19;5017420;28;20778;-69
2023/05/26 01:44:14;;;;;;;18.17;8.85;;;;;;;13.06;100.00;97089.84;5025536;28;20197;-72
2023/05/26 01:46:49;;;;;;;17.75;8.23;;;;;;;13.15;100.00;97093.13;5025919;28;20037;-71
2023/05/26 01:49:16;;;;;;;14.75;8.85;;;;;;;13.22;100.00;97088.84;5018543;28;20049;-70
2023/05/26 01:51:46;;;;;;;17.92;8.60;;;;;;;13.19;100.00;97095.91;5026345;28;20056;-72
2023/05/26 01:54:15;;;;;;;22.83;9.80;;;;;;;13.16;100.00;97091.16;5018298;28;20052;-73
2023/05/26 01:56:44;;;;;;;15.10;9.35;;;;;;;13.14;100.00;97093.47;5021395;28;20046;-72
2023/05/26 01:59:10;;;;;;;15.90;9.02;;;;;;;13.13;100.00;97097.41;5019820;28;20121;-72
2023/05/26 02:01:35;;;;;;;19.58;9.23;;;;;;;13.20;100.00;97094.75;5026715;28;20034;-70
2023/05/26 02:04:01;;;;;;;18.67;8.43;;;;;;;13.16;100.00;97097.47;5028024;28;20045;-73
2023/05/26 02:06:26;;;;;;;15.55;8.02;;;;;;;13.25;100.00;97088.13;5021506;28;20037;-72
2023/05/26 02:08:52;;;;;;;15.32;8.32;;;;;;;13.22;100.00;97099.84;5025811;28;20038;-71
2023/05/26 02:11:18;;;;;;;19.23;9.32;;;;;;;13.25;100.00;97099.13;5019338;28;20128;-70
2023/05/26 02:13:45;;;;;;;16.65;9.05;;;;;;;13.20;100.00;97100.25;5024445;28;20397;-69
2023/05/26 02:16:11;;;;;;;15.30;9.48;;;;;;;13.19;100.00;97095.91;5017647;28;20037;-68
2023/05/26 02:18:36;;;;;;;18.23;9.27;;;;;;;13.14;100.00;97101.72;5025156;28;20048;-71
2023/05/26 02:21:02;;;;;;;15.93;9.13;;;;;;;13.12;100.00;97093.84;5028359;28;20045;-69
2023/05/26 02:23:27;;;;;;;15.15;8.55;;;;;;;13.11;100.00;97103.28;5032175;28;20053;-71
2023/05/26 02:25:53;;;;;;;17.52;10.02;;;;;;;13.07;100.00;97093.41;5030917;28;20037;-70
2023/05/26 02:28:18;;;;;;;14.75;8.45;;;;;;;12.97;100.00;97100.34;5024168;28;20061;-70
2023/05/26 02:30:44;;;;;;;13.98;8.95;;;;;;;12.94;100.00;97096.38;5042803;23;20046;-69
2023/05/26 02:33:09;;;;;;;20.50;9.70;;;;;;;12.84;100.00;97099.78;5023837;28;20045;-68
2023/05/26 02:35:35;;;;;;;20.67;10.30;;;;;;;12.74;100.00;97103.16;5023358;28;20050;-69
2023/05/26 02:38:00;;;;;;;18.75;9.55;;;;;;;12.73;100.00;97104.31;5023476;28;20128;-70
2023/05/26 02:40:25;;;;;;;20.48;10.23;;;;;;;12.72;100.00;97103.53;5033063;28;20052;-69
2023/05/26 02:42:51;;;;;;;16.70;9.82;;;;;;;12.72;100.00;97098.03;5023038;28;20103;-69
2023/05/26 02:45:16;;;;;;;15.50;9.48;;;;;;;12.65;100.00;97097.94;5017592;28;20048;-69
2023/05/26 02:47:42;;;;;;;15.80;9.00;;;;;;;12.65;100.00;97094.41;5021882;28;20042;-69
2023/05/26 02:50:07;;;;;;;21.80;10.05;;;;;;;12.63;100.00;97092.81;5016869;28;20683;-69
2023/05/26 02:52:33;;;;;;;16.48;9.30;;;;;;;12.60;100.00;97090.00;5023120;28;20103;-70
2023/05/26 02:54:58;;;;;;;16.33;9.18;;;;;;;12.58;100.00;97089.59;5022578;28;20042;-69
2023/05/26 02:57:23;;;;;;;17.08;9.95;;;;;;;12.58;100.00;97095.09;5017822;28;20045;-69
2023/05/26 02:59:49;;;;;;;16.27;9.40;;;;;;;12.63;100.00;97103.00;5022626;28;20563;-69
2023/05/26 03:02:14;;;;;;;19.92;9.98;;;;;;;12.57;100.00;97088.81;5016575;28;20444;-70
2023/05/26 03:04:39;;;;;;;24.98;9.80;;;;;;;12.56;100.00;97100.94;5023098;28;20041;-70
2023/05/26 03:07:07;;;;;;;19.05;10.18;;;;;;;12.57;100.00;97108.03;5016065;28;20405;-70
2023/05/26 03:09:33;;;;;;;20.88;10.30;;;;;;;12.50;100.00;97099.69;5023073;28;20056;-69
2023/05/26 03:11:59;;;;;;;17.38;8.98;;;;;;;12.45;100.00;97091.75;5023377;28;20119;-68
2023/05/26 03:14:25;;;;;;;16.52;10.30;;;;;;;12.48;100.00;97095.72;5015260;28;20073;-69
2023/05/26 03:16:51;;;;;;;16.73;9.43;;;;;;;12.50;100.00;97088.69;5023085;28;20041;-69
2023/05/26 03:19:17;;;;;;;20.23;8.95;;;;;;;12.48;100.00;97096.53;5017941;28;20732;-69
2023/05/26 03:21:42;;;;;;;19.30;10.50;;;;;;;12.55;100.00;97093.88;5023152;28;20076;-69
2023/05/26 03:24:08;;;;;;;15.13;9.90;;;;;;;12.57;100.00;97094.31;5017674;28;20458;-69
2023/05/26 03:26:33;;;;;;;21.17;9.40;;;;;;;12.63;100.00;97094.78;5022295;28;20127;-69
2023/05/26 03:28:59;;;;;;;19.35;9.48;;;;;;;12.64;100.00;97093.63;5023282;28;20045;-69
2023/05/26 03:31:26;;;;;;;20.15;9.18;;;;;;;12.64;100.00;97099.13;5018024;28;20042;-70
2023/05/26 03:33:51;;;;;;;19.80;9.35;;;;;;;12.70;100.00;97094.09;5023015;28;20052;-69
2023/05/26 03:36:18;;;;;;;16.80;9.85;;;;;;;12.75;100.00;97096.53;5017613;28;20398;-70
2023/05/26 03:38:43;;;;;;;16.15;8.93;;;;;;;12.71;100.00;97090.97;5021018;28;20048;-70
2023/05/26 03:41:09;;;;;;;18.52;9.52;;;;;;;12.66;100.00;97105.03;5015396;28;20045;-69
2023/05/26 03:43:34;;;;;;;15.57;8.90;;;;;;;12.62;100.00;97096.72;5021614;28;20038;-69
2023/05/26 03:46:00;;;;;;;16.58;9.38;;;;;;;12.62;100.00;97102.22;5022713;28;20076;-69
2023/05/26 03:48:26;;;;;;;18.90;10.05;;;;;;;12.63;100.00;97100.28;5017614;28;20045;-70
2023/05/26 03:50:51;;;;;;;22.73;9.73;;;;;;;12.60;100.00;97093.56;5022347;28;20052;-70
2023/05/26 03:53:17;;;;;;;18.38;9.23;;;;;;;12.68;100.00;97099.16;5016396;28;20095;-70
2023/05/26 03:55:43;;;;;;;14.27;9.23;;;;;;;12.81;100.00;97103.28;5022337;28;20037;-70
2023/05/26 03:58:08;;;;;;;18.05;9.77;;;;;;;12.71;100.00;97103.91;5015123;28;20050;-69
2023/05/26 04:00:33;;;;;;;17.73;9.70;;;;;;;12.73;100.00;97099.63;5018170;28;20045;-69
2023/05/26 04:02:59;;;;;;;15.65;9.48;;;;;;;12.68;100.00;97099.94;5021671;28;20060;-70
2023/05/26 04:05:25;;;;;;;19.42;10.20;;;;;;;12.75;100.00;97100.06;5015313;28;20041;-67
2023/05/26 04:07:51;;;;;;;17.70;9.60;;;;;;;12.73;100.00;97105.13;5021303;28;20034;-69
2023/05/26 04:10:16;;;;;;;15.45;9.82;;;;;;;12.79;100.00;97106.38;5015411;28;20048;-69
2023/05/26 04:12:42;;;;;;;20.92;10.40;;;;;;;12.84;100.00;97112.72;5021340;28;20370;-70
2023/05/26 04:15:09;;;;;;;14.88;9.73;;;;;;;12.93;100.00;97110.50;5016997;28;20137;-69
2023/05/26 04:17:35;;;;;;;16.98;9.82;;;;;;;12.99;100.00;97118.03;5021859;28;20037;-70
2023/05/26 04:20:01;;;;;;;17.58;10.02;;;;;;;13.22;100.00;97113.59;5030124;28;20041;-69
2023/05/26 04:22:26;;;;;;;18.60;9.45;;;;;;;13.23;100.00;97115.22;5014691;28;20073;-69
2023/05/26 04:24:51;;;;;;;15.10;9.55;;;;;;;13.27;100.00;97116.84;5021660;28;20076;-68
2023/05/26 04:27:17;;;;;;;18.50;9.68;;;;;;;13.35;100.00;97123.25;5016756;28;20046;-69
2023/05/26 04:29:42;;;;;;;24.52;10.40;;;;;;;13.72;100.00;97120.53;5021792;28;20492;-69
2023/05/26 04:32:11;;;;;;;15.18;8.85;;;;;;;14.09;97.68;97122.47;5017403;28;20046;-68
2023/05/26 04:34:39;;;;;;;17.73;8.80;;;;;;;14.46;95.27;97127.13;5021467;28;20107;-68
2023/05/26 04:37:04;;;;;;;17.20;8.20;;;;;;;14.68;94.05;97122.56;5016563;28;20474;-67
2023/05/26 04:39:31;;;;;;;18.65;9.13;;;;;;;14.93;91.33;97121.16;5021193;28;20124;-69
2023/05/26 04:41:57;;;;;;;15.77;8.50;;;;;;;14.96;91.31;97118.41;5021200;28;20044;-69
2023/05/26 04:44:24;;;;;;;19.38;9.38;;;;;;;14.62;91.59;97123.31;5016530;28;20170;-69
2023/05/26 04:46:49;;;;;;;19.15;8.70;;;;;;;14.34;93.34;97124.66;5021535;28;20072;-69
2023/05/26 04:49:16;;;;;;;16.85;8.27;;;;;;;14.54;93.75;97125.97;5016784;28;20069;-69
2023/05/26 04:51:42;;;;;;;18.80;8.57;;;;;;;14.45;92.40;97127.50;5025043;28;20387;-69
2023/05/26 04:54:07;;;;;;;17.60;9.20;;;;;;;14.61;94.08;97128.03;5018428;28;20103;-69
2023/05/26 04:56:33;;;;;;;19.80;9.07;;;;;;;14.49;92.99;97133.81;5026289;28;20049;-68
2023/05/26 04:58:58;;;;;;;16.08;8.32;;;;;;;15.08;91.72;97131.09;5029909;28;20046;-67
2023/05/26 05:01:24;;;;;;;15.10;9.15;;;;;;;14.88;91.93;97125.06;5023305;28;20049;-69
2023/05/26 05:03:50;;;;;;;15.30;8.57;;;;;;;14.93;92.98;97129.41;5018082;28;20144;-69
2023/05/26 05:06:15;;;;;;;21.77;9.48;;;;;;;15.55;88.98;97134.06;5017967;28;20049;-69
2023/05/26 05:08:41;;;;;;;15.43;8.23;;;;;;;15.64;88.60;97138.03;5025896;28;20121;-69
2023/05/26 05:11:06;;;;;;;19.05;9.30;;;;;;;16.52;82.95;97139.81;5021777;28;20037;-69
2023/05/26 05:13:32;;;;;;;14.68;9.05;;;;;;;16.27;83.36;97137.03;5023174;28;20501;-69
2023/05/26 05:15:58;;;;;;;15.43;8.23;;;;;;;15.98;84.04;97137.75;5024150;28;20044;-69
2023/05/26 05:18:24;;;;;;;16.02;9.63;;;;;;;16.97;81.22;97143.72;5027618;28;20274;-68
2023/05/26 05:20:50;;;;;;;20.17;8.63;;;;;;;17.32;75.94;97144.84;5034886;28;20052;-68
2023/05/26 05:23:15;;;;;;;15.80;8.95;;;;;;;16.25;80.14;97143.72;5028540;28;20053;-68
2023/05/26 05:25:42;;;;;;;16.30;8.80;;;;;;;16.03;82.03;97153.19;5033885;28;20060;-69
2023/05/26 05:28:11;;;;;;;12.38;7.72;;;;;;;17.04;77.93;97154.00;5030224;28;20407;-69
2023/05/26 05:30:37;;;;;;;12.48;8.15;;;;;;;17.14;76.59;97153.19;5030429;28;20046;-68
2023/05/26 05:33:02;;;;;;;17.90;7.97;;;;;;;18.73;69.22;97156.69;5025547;28;20042;-67
2023/05/26 05:35:27;;;;;;;12.45;8.05;;;;;;;18.01;69.40;97158.44;5030667;28;20041;-68
2023/05/26 05:37:57;;;;;;;15.35;8.38;;;;;;;17.73;70.52;97155.34;5031141;28;20060;-69
2023/05/26 05:40:22;;;;;;;;;;;;;;;17.86;71.20;97152.97;5025306;28;20462;-69
2023/05/26 05:42:48;;;;;;;12.33;7.17;;;;;;;20.01;64.11;97154.94;5026331;28;20354;-69
2023/05/26 05:45:13;;;;;;;14.95;8.13;;;;;;;18.19;66.52;97158.31;5024107;28;20292;-69
2023/05/26 05:47:39;;;;;;;14.85;7.07;;;;;;;19.91;62.76;97164.22;5032506;28;20072;-70
2023/05/26 05:50:05;;;;;;;13.05;7.20;;;;;;;21.52;55.64;97158.06;5026143;28;20072;-66
2023/05/26 05:52:30;;;;;;;12.93;7.30;;;;;;;20.38;56.32;97156.00;5031238;28;20627;-69
2023/05/26 05:54:56;;;;;;;15.77;7.63;;;;;;;20.45;58.11;97158.66;5030310;28;20099;-68
2023/05/26 05:57:21;;;;;;;11.90;7.32;;;;;;;20.56;56.84;97164.06;5022339;28;20120;-70
2023/05/26 05:59:47;;;;;;;15.68;8.02;;;;;;;18.65;64.99;97168.25;5030028;28;20037;-69
2023/05/26 06:02:12;;;;;;;20.40;8.25;;;;;;;19.93;61.06;97170.16;5025754;28;20068;-69
2023/05/26 06:04:37;;;;;;;12.50;8.20;;;;;;;17.86;66.72;97174.31;5030866;28;20044;-69
2023/05/26 06:07:03;;;;;;;13.35;7.57;;;;;;;19.02;62.48;97166.78;5029168;28;20191;-68
2023/05/26 06:09:28;;;;;;;15.10;7.85;;;;;;;20.04;58.36;97176.34;5024081;28;20486;-70
2023/05/26 06:11:54;;;;;;;23.73;7.72;;;;;;;20.39;57.12;97177.06;5030500;28;20168;-70
2023/05/26 06:14:19;;;;;;;21.33;8.38;;;;;;;19.57;60.89;97179.69;5024104;28;20119;-69
2023/05/26 06:16:44;;;;;;;14.48;8.15;;;;;;;19.94;59.03;97182.84;5026677;28;20048;-70
2023/05/26 06:19:10;;;;;;;13.30;7.72;;;;;;;18.82;62.02;97184.00;5025787;28;20047;-69
2023/05/26 06:21:35;;;;;;;14.60;7.68;;;;;;;19.88;61.72;97187.28;5031893;28;20045;-69
2023/05/26 06:24:01;;;;;;;14.52;8.02;;;;;;;21.49;55.31;97181.97;5029356;28;20214;-69
2023/05/26 06:26:26;;;;;;;17.58;8.45;;;;;;;19.79;57.25;97193.34;5024513;28;20525;-69
2023/05/26 06:28:52;;;;;;;18.83;7.65;;;;;;;18.76;62.65;97187.59;5028841;28;20048;-69
2023/05/26 06:31:17;;;;;;;15.68;7.85;;;;;;;20.04;58.92;97193.03;5024082;28;20052;-68
2023/05/26 06:33:42;;;;;;;14.70;6.80;;;;;;;21.83;53.58;97192.06;5028311;28;20069;-68
2023/05/26 06:36:08;;;;;;;15.43;7.82;;;;;;;19.74;59.36;97196.59;5023166;28;20510;-69
2023/05/26 06:38:34;;;;;;;14.60;8.07;;;;;;;19.78;59.28;97191.78;5030410;28;20120;-71
2023/05/26 06:40:59;;;;;;;17.27;8.88;;;;;;;19.48;60.28;97191.31;5028335;28;20077;-69
2023/05/26 06:43:24;;;;;;;17.77;8.57;;;;;;;18.62;63.81;97197.63;5021053;28;20486;-69
2023/05/26 06:45:50;;;;;;;14.85;8.27;;;;;;;18.19;66.72;97189.59;5029550;28;20041;-69
2023/05/26 06:48:15;;;;;;;13.43;7.53;;;;;;;20.10;63.03;97185.03;5025895;28;20056;-69
2023/05/26 06:50:41;;;;;;;22.23;8.75;;;;;;;18.54;63.38;97193.31;5025356;28;20042;-67
2023/05/26 06:53:06;;;;;;;18.98;9.13;;;;;;;17.31;69.54;97197.84;5020850;28;20034;-67
2023/05/26 06:55:32;;;;;;;17.95;9.10;;;;;;;17.67;70.82;97197.72;5031925;28;20045;-70
2023/05/26 06:57:57;;;;;;;16.40;9.50;;;;;;;18.54;65.88;97205.19;5030043;28;20044;-68
2023/05/26 07:00:23;;;;;;;13.77;8.98;;;;;;;18.75;65.35;97205.47;5022660;28;20048;-69
2023/05/26 07:02:48;;;;;;;23.92;9.45;;;;;;;20.21;60.63;97202.34;5026662;28;20048;-69
2023/05/26 07:05:13;;;;;;;17.05;9.75;;;;;;;21.01;58.38;97199.94;5020739;28;20128;-69
2023/05/26 07:07:39;;;;;;;13.82;7.53;;;;;;;23.36;51.60;97207.72;5025547;28;20045;-68
2023/05/26 07:10:05;;;;;;;16.50;8.55;;;;;;;21.70;55.14;97205.09;5022730;28;20041;-67
2023/05/26 07:12:30;;;;;;;14.43;8.05;;;;;;;20.22;58.78;97201.94;5027000;28;20045;-69
2023/05/26 07:14:56;;;;;;;13.02;8.30;;;;;;;18.81;65.17;97212.94;5027816;28;20042;-69
2023/05/26 07:17:21;;;;;;;15.27;8.70;;;;;;;18.68;68.36;97209.06;5023155;28;20199;-69
2023/05/26 07:19:47;;;;;;;18.65;9.60;;;;;;;19.28;65.17;97204.19;5028326;28;20048;-67
2023/05/26 07:22:12;;;;;;;17.25;9.25;;;;;;;20.02;63.36;97209.34;5021123;28;20561;-69
2023/05/26 07:24:37;;;;;;;16.15;9.18;;;;;;;20.34;60.91;97203.34;5027938;28;20128;-69
2023/05/26 07:27:03;;;;;;;20.55;9.90;;;;;;;19.96;63.24;97203.47;5025275;28;20041;-67
2023/05/26 07:29:29;;;;;;;18.38;9.95;;;;;;;19.64;62.19;97201.84;5026176;28;20080;-69
2023/05/26 07:31:54;;;;;;;18.65;9.48;;;;;;;19.64;64.51;97207.41;5029434;28;20042;-69
2023/05/26 07:34:20;;;;;;;16.45;9.55;;;;;;;19.83;64.75;97206.00;5019300;28;20048;-68
2023/05/26 07:36:45;;;;;;;17.73;9.80;;;;;;;20.33;59.88;97215.69;5027064;28;20144;-69
2023/05/26 07:39:11;;;;;;;16.38;9.55;;;;;;;19.05;64.74;97202.03;5021684;28;20041;-68
2023/05/26 07:41:36;;;;;;;15.23;8.70;;;;;;;21.07;58.41;97206.59;5027226;28;20406;-68
2023/05/26 07:44:02;;;;;;;18.13;9.40;;;;;;;20.92;60.65;97205.25;5023106;28;20045;-66
2023/05/26 07:46:27;;;;;;;15.10;8.73;;;;;;;21.85;58.01;97205.59;5022591;28;20041;-68
2023/05/26 07:48:53;;;;;;;18.52;9.90;;;;;;;24.12;49.33;97212.03;5024546;28;20064;-70
2023/05/26 07:51:19;;;;;;;17.17;9.68;;;;;;;23.56;50.57;97213.94;5020446;28;20041;-69
2023/05/26 07:53:44;;;;;;;15.80;9.85;;;;;;;20.86;57.52;97212.53;5026043;28;20060;-70
2023/05/26 07:56:10;;;;;;;16.08;9.57;;;;;;;23.00;52.17;97205.81;5019632;28;20040;-68
2023/05/26 07:58:38;;;;;;;19.17;9.00;;;;;;;21.20;57.20;97206.78;5022317;28;20037;-68
2023/05/26 08:01:06;;;;;;;18.50;9.93;;;;;;;21.47;56.40;97205.94;5017245;28;20057;-67
2023/05/26 08:03:32;;;;;;;18.42;9.85;;;;;;;24.15;49.60;97209.13;5025129;28;20069;-68
2023/05/26 08:05:58;;;;;;;18.63;9.77;;;;;;;22.05;52.02;97214.72;5025819;28;20046;-68
2023/05/26 08:08:23;;;;;;;17.42;10.50;;;;;;;20.14;61.22;97205.22;5019668;28;20713;-70
2023/05/26 08:10:49;;;;;;;17.77;10.23;;;;;;;19.98;62.48;97209.38;5023818;28;20048;-70
2023/05/26 08:13:14;;;;;;;21.63;10.02;;;;;;;22.47;54.81;97211.44;5019208;28;20037;-70
2023/05/26 08:15:39;;;;;;;18.60;9.65;;;;;;;23.50;50.97;97201.75;5025329;28;20128;-70
2023/05/26 08:18:05;;;;;;;22.15;9.77;;;;;;;24.37;48.66;97197.28;5020382;28;20065;-69
2023/05/26 08:20:30;;;;;;;16.17;9.77;;;;;;;21.77;54.78;97207.75;5026712;28;20051;-70
2023/05/26 08:22:58;;;;;;;20.52;9.10;;;;;;;23.46;50.80;97215.00;5021809;28;20045;-70
2023/05/26 08:25:24;;;;;;;15.57;9.00;;;;;;;22.68;53.48;97216.53;5015893;28;20045;-69
2023/05/26 08:27:49;;;;;;;19.38;9.95;;;;;;;22.31;53.57;97213.00;5021895;28;20041;-69
2023/05/26 08:30:14;;;;;;;15.18;8.55;;;;;;;23.63;49.99;97202.56;5016243;28;20041;-69
2023/05/26 08:32:40;;;;;;;16.42;9.90;;;;;;;22.11;54.14;97210.22;5019817;28;20048;-69
2023/05/26 08:35:05;;;;;;;19.50;10.60;;;;;;;20.63;57.86;97202.94;5015625;28;20045;-69
2023/05/26 08:37:31;;;;;;;17.55;10.05;;;;;;;20.42;60.65;97199.25;5018618;28;20068;-69
2023/05/26 08:39:59;;;;;;;18.80;10.73;;;;;;;20.54;59.66;97203.44;5020776;28;20045;-69
2023/05/26 08:42:30;;;;;;;18.40;9.73;;;;;;;22.18;56.01;97197.31;5015360;28;20045;-70
2023/05/26 08:44:57;;;;;;;19.63;10.40;;;;;;;21.57;57.25;97197.38;5020970;28;20033;-68
2023/05/26 08:47:23;;;;;;;17.02;10.05;;;;;;;22.19;54.12;97198.91;5015953;28;20268;-69
2023/05/26 08:50:03;;;;;;;17.70;10.32;;;;;;;23.23;51.68;97197.25;5020496;28;20556;-68
2023/05/26 08:52:29;;;;;;;18.80;8.90;;;;;;;23.82;51.17;97192.50;5016467;28;20057;-69
2023/05/26 08:54:54;;;;;;;15.23;8.27;;;;;;;24.85;50.95;97188.97;5021553;28;20037;-68
2023/05/26 08:57:20;;;;;;;16.55;8.85;;;;;;;24.68;49.39;97189.13;5016377;28;20055;-69
2023/05/26 08:59:47;;;;;;;18.17;8.60;;;;;;;25.03;48.66;97189.19;5021416;28;20478;-69
2023/05/26 09:02:12;;;;;;;16.00;8.88;;;;;;;25.83;46.99;97201.25;5014981;28;20034;-69
2023/05/26 09:04:38;;;;;;;16.88;9.20;;;;;;;24.57;49.08;97199.88;5020177;28;20053;-68
2023/05/26 09:07:08;;;;;;;14.70;8.60;;;;;;;26.04;47.08;97189.28;5019802;28;20045;-69
2023/05/26 09:09:33;;;;;;;;;;;;;;;27.06;44.43;97201.72;5021539;28;20158;-68
2023/05/26 09:11:59;;;;;;;16.15;7.72;;;;;;;26.84;44.16;97195.41;5020574;28;20024;-67
2023/05/26 09:14:24;;;;;;;18.92;8.73;;;;;;;26.50;45.16;97194.31;5015358;28;20164;-68
2023/05/26 09:16:50;;;;;;;20.17;8.43;;;;;;;26.42;45.30;97191.03;5020430;28;20052;-67
2023/05/26 09:19:19;;;;;;;13.57;9.32;;;;;;;25.76;45.88;97193.88;5015862;28;20045;-70
2023/05/26 09:21:46;;;;;;;16.17;9.67;;;;;;;25.68;45.79;97195.41;5020397;28;20091;-70
2023/05/26 09:24:15;;;;;;;17.75;9.73;;;;;;;25.56;45.72;97183.00;5017243;28;20134;-70
2023/05/26 09:26:41;;;;;;;17.00;9.77;;;;;;;25.17;46.22;97193.50;5020508;28;20194;-70
2023/05/26 09:29:06;;;;;;;20.00;9.68;;;;;;;25.51;46.53;97184.34;5015364;28;20049;-67
2023/05/26 09:31:43;;;;;;;15.02;9.02;;;;;;;26.25;44.98;97189.69;5020142;28;20045;-67
2023/05/26 09:34:09;;;;;;;19.60;10.10;;;;;;;26.72;43.67;97187.88;5017598;28;20068;-67
2023/05/26 09:36:36;;;;;;;18.70;8.60;;;;;;;26.70;44.36;97183.53;5022687;28;20038;-69
2023/05/26 09:39:03;;;;;;;16.50;8.52;;;;;;;26.84;43.83;97182.13;5021371;28;20196;-67
2023/05/26 09:41:39;;;;;;;19.23;8.68;;;;;;;26.61;45.13;97171.47;5021445;28;20041;-70
2023/05/26 09:44:08;;;;;;;14.93;8.55;;;;;;;26.72;44.36;97177.41;5016713;28;20462;-68
2023/05/26 09:46:35;;;;;;;15.82;8.98;;;;;;;26.17;44.67;97177.97;5020587;28;20087;-69
2023/05/26 09:49:02;;;;;;;18.00;9.63;;;;;;;25.48;45.85;97170.44;5020979;28;20042;-69
2023/05/26 09:51:31;;;;;;;21.13;9.07;;;;;;;25.87;45.96;97173.84;5015736;28;20144;-67
2023/05/26 09:53:56;;;;;;;19.50;10.65;;;;;;;26.18;45.55;97173.13;5020313;28;20128;-67
2023/05/26 09:56:24;;;;;;;17.80;8.55;;;;;;;26.59;44.93;97177.50;5015180;28;20650;-70
2023/05/26 09:58:53;;;;;;;21.92;8.65;;;;;;;26.81;45.29;97177.47;5020123;28;20045;-69
2023/05/26 10:01:21;;;;;;;13.57;7.82;;;;;;;27.61;42.56;97178.50;5014663;28;20497;-69
2023/05/26 10:03:48;;;;;;;13.82;7.85;;;;;;;28.01;41.77;97176.78;5028689;28;20045;-69
2023/05/26 10:06:17;;;;;;;15.68;7.97;;;;;;;27.20;43.32;97177.84;5017515;28;20128;-70
2023/05/26 10:08:45;;;;;;;16.52;9.05;;;;;;;26.43;44.85;97178.53;5024063;28;20045;-68
2023/05/26 10:11:12;;;;;;;18.98;9.13;;;;;;;25.04;47.65;97171.13;5018587;28;20049;-70
2023/05/26 10:13:38;;;;;;;17.85;9.65;;;;;;;24.88;48.18;97177.66;5024903;28;20128;-68
2023/05/26 10:16:04;;;;;;;16.02;9.55;;;;;;;24.85;48.84;97160.97;5019562;28;20045;-68
2023/05/26 10:18:30;;;;;;;15.10;8.88;;;;;;;25.35;48.42;97157.28;5024133;28;20096;-68
2023/05/26 10:21:00;;;;;;;13.98;8.40;;;;;;;24.91;46.10;97159.19;5023522;28;20038;-69
2023/05/26 10:23:34;;;;;;;12.65;8.02;;;;;;;24.71;46.01;97157.41;5018226;28;20048;-69
2023/05/26 10:26:18;;;;;;;14.50;8.68;;;;;;;23.75;48.51;97167.50;5023385;28;20049;-69
2023/05/26 10:29:05;;;;;;;10.20;7.53;;;;;;;23.73;46.67;97167.13;5023009;28;20414;-68
2023/05/26 10:31:35;;;;;;;15.35;7.47;;;;;;;23.12;48.21;97173.59;5023070;28;20498;-70
2023/05/26 10:34:11;;;;;;;14.00;7.18;;;;;;;24.04;47.54;97163.91;5023093;28;20049;-69
2023/05/26 10:36:37;;;;;;;12.90;6.80;;;;;;;24.85;44.80;97155.38;5022626;28;20124;-69
2023/05/26 10:39:09;;;;;;;16.48;7.10;;;;;;;24.26;45.03;97154.84;5019866;28;20041;-68
2023/05/26 10:41:38;;;;;;;12.90;7.10;;;;;;;23.72;46.55;97153.63;5023193;28;20405;-69
2023/05/26 10:44:04;;;;;;;13.00;6.63;;;;;;;23.57;49.16;97147.63;5020109;28;20045;-67
2023/05/26 10:46:37;;;;;;;17.02;6.70;;;;;;;24.22;49.56;97147.34;5021749;28;20363;-69
2023/05/26 10:49:02;;;;;;;15.95;9.10;;;;;;;23.41;52.06;97145.69;5020232;28;20517;-67
2023/05/26 10:51:29;;;;;;;11.80;7.45;;;;;;;23.32;51.18;97146.34;5021242;28;20045;-68
2023/05/26 10:53:59;;;;;;;11.25;6.65;;;;;;;23.02;48.53;97145.47;5022358;28;20042;-68
2023/05/26 10:56:34;;;;;;;16.75;6.68;;;;;;;23.28;47.67;97135.25;5018323;28;20650;-68
2023/05/26 10:59:02;;;;;;;13.75;6.53;;;;;;;23.88;46.49;97142.38;5022962;28;20038;-69
2023/05/26 11:01:29;;;;;;;13.45;6.10;;;;;;;24.66;45.71;97129.19;5015250;28;20041;-70
2023/05/26 11:04:05;;;;;;;14.55;6.22;;;;;;;24.98;43.87;97128.13;5021406;28;20041;-69
2023/05/26 11:06:54;;;;;;;15.30;7.60;;;;;;;24.53;45.50;97134.81;5022557;28;20041;-69
2023/05/26 11:09:25;;;;;;;11.32;5.80;;;;;;;24.56;45.09;97133.91;5000564;28;20133;-69
2023/05/26 11:11:53;;;;;;;9.82;6.32;;;;;;;25.11;44.07;97131.66;5022928;28;20091;-70
2023/05/26 11:14:27;;;;;;;12.95;6.32;;;;;;;25.37;42.33;97134.38;5020028;28;20053;-68
2023/05/26 11:16:56;;;;;;;13.23;6.22;;;;;;;24.97;43.33;97135.75;5024585;28;20514;-68
2023/05/26 11:19:32;;;;;;;10.50;5.40;;;;;;;25.71;42.19;97127.94;5016273;28;21158;-69
2023/05/26 11:21:59;;;;;;;10.30;6.13;;;;;;;25.96;41.13;97131.84;5022287;28;20532;-69